ミラノ/マルペンサ の空港の天気 - METARとTAF

ミラノ・マルペンサ国際空港 ( LIMC / MXP ) - イタリア ミラノ
飛行場実況気象(Metar)
観測時間06/18 01:50 CEST (06/17 23:50 UTC)
風向・風速北 4m/s
視程10km以上
天気現象
全天の4割程度の雲 雲底高度 1830m
気温20℃
湿度78%
気圧1016hPa
METARLIMC 172350Z 01007KT 9999 SCT060 20/16 Q1016 NOSIG
過去の天気等 Google飛行場航空写真 Wunderground天気予報

過去48時間のMETAR

飛行場予報(TAF)
発表時間: 6/18 01:00 CEST (6/17 23:00 UTC)
予報対象時間: 18日2時 CEST ~ 19日8時 CEST
風向・風速不定 3m/s
視程10km以上
全天の4割程度の雲 雲底高度 2130m
18日2時 CEST ~ 18日4時 CEST に 確率 30% で一時的に
天気現象雷雨
TAF LIMC 172300Z 1800/1906 VRB05KT 9999 SCT070
PROB30 TEMPO 1800/1802 TSRA